sensor_id;sensor_type;location;lat;lon;timestamp;P1;durP1;ratioP1;P2;durP2;ratioP2
10939;SDS011;5522;42.696;23.494;2023-03-14T00:01:26;0.30;;;0.30;;
10939;SDS011;5522;42.696;23.494;2023-03-14T00:03:52;0.57;;;0.57;;
10939;SDS011;5522;42.696;23.494;2023-03-14T00:06:19;1.00;;;0.30;;
10939;SDS011;5522;42.696;23.494;2023-03-14T00:08:47;0.50;;;0.40;;
10939;SDS011;5522;42.696;23.494;2023-03-14T00:11:15;0.77;;;0.35;;
10939;SDS011;5522;42.696;23.494;2023-03-14T00:13:43;0.40;;;0.40;;
10939;SDS011;5522;42.696;23.494;2023-03-14T00:16:15;0.30;;;0.30;;
10939;SDS011;5522;42.696;23.494;2023-03-14T00:18:45;1.42;;;0.47;;
10939;SDS011;5522;42.696;23.494;2023-03-14T00:21:11;0.90;;;0.40;;
10939;SDS011;5522;42.696;23.494;2023-03-14T00:23:39;1.27;;;0.40;;
10939;SDS011;5522;42.696;23.494;2023-03-14T00:26:08;3.50;;;0.47;;
10939;SDS011;5522;42.696;23.494;2023-03-14T00:28:36;0.50;;;0.50;;
10939;SDS011;5522;42.696;23.494;2023-03-14T00:31:03;0.63;;;0.40;;
10939;SDS011;5522;42.696;23.494;2023-03-14T00:33:31;1.60;;;0.47;;
10939;SDS011;5522;42.696;23.494;2023-03-14T00:36:00;1.70;;;0.50;;
10939;SDS011;5522;42.696;23.494;2023-03-14T00:38:29;0.40;;;0.40;;
10939;SDS011;5522;42.696;23.494;2023-03-14T00:40:57;2.28;;;0.90;;
10939;SDS011;5522;42.696;23.494;2023-03-14T00:43:24;2.05;;;0.40;;
10939;SDS011;5522;42.696;23.494;2023-03-14T00:45:51;1.55;;;0.73;;
10939;SDS011;5522;42.696;23.494;2023-03-14T00:48:19;1.50;;;0.50;;
10939;SDS011;5522;42.696;23.494;2023-03-14T00:50:46;0.85;;;0.50;;
10939;SDS011;5522;42.696;23.494;2023-03-14T00:53:14;0.60;;;0.60;;
10939;SDS011;5522;42.696;23.494;2023-03-14T00:55:42;1.17;;;0.50;;
10939;SDS011;5522;42.696;23.494;2023-03-14T00:58:09;0.60;;;0.60;;
10939;SDS011;5522;42.696;23.494;2023-03-14T01:05:47;2.60;;;0.50;;
10939;SDS011;5522;42.696;23.494;2023-03-14T01:08:16;2.63;;;0.60;;
10939;SDS011;5522;42.696;23.494;2023-03-14T01:10:43;0.88;;;0.52;;
10939;SDS011;5522;42.696;23.494;2023-03-14T01:13:10;0.95;;;0.50;;
10939;SDS011;5522;42.696;23.494;2023-03-14T01:15:37;0.50;;;0.50;;
10939;SDS011;5522;42.696;23.494;2023-03-14T01:18:04;0.63;;;0.50;;
10939;SDS011;5522;42.696;23.494;2023-03-14T01:23:00;0.52;;;0.52;;
10939;SDS011;5522;42.696;23.494;2023-03-14T01:25:29;0.93;;;0.55;;
10939;SDS011;5522;42.696;23.494;2023-03-14T01:27:56;0.60;;;0.57;;
10939;SDS011;5522;42.696;23.494;2023-03-14T01:30:23;3.42;;;0.50;;
10939;SDS011;5522;42.696;23.494;2023-03-14T01:32:50;1.42;;;0.60;;
10939;SDS011;5522;42.696;23.494;2023-03-14T01:35:17;1.85;;;0.50;;
10939;SDS011;5522;42.696;23.494;2023-03-14T01:37:43;2.05;;;0.50;;
10939;SDS011;5522;42.696;23.494;2023-03-14T01:40:11;1.10;;;0.50;;
10939;SDS011;5522;42.696;23.494;2023-03-14T01:42:45;1.63;;;0.50;;
10939;SDS011;5522;42.696;23.494;2023-03-14T01:48:18;2.05;;;0.60;;
10939;SDS011;5522;42.696;23.494;2023-03-14T01:50:45;0.77;;;0.40;;
10939;SDS011;5522;42.696;23.494;2023-03-14T01:53:12;2.17;;;0.50;;
10939;SDS011;5522;42.696;23.494;2023-03-14T01:55:40;1.48;;;0.50;;
10939;SDS011;5522;42.696;23.494;2023-03-14T01:58:08;1.95;;;0.60;;
10939;SDS011;5522;42.696;23.494;2023-03-14T02:00:35;1.02;;;0.95;;
10939;SDS011;5522;42.696;23.494;2023-03-14T02:03:05;0.60;;;0.60;;
10939;SDS011;5522;42.696;23.494;2023-03-14T02:05:37;0.60;;;0.60;;
10939;SDS011;5522;42.696;23.494;2023-03-14T02:08:07;0.50;;;0.50;;
10939;SDS011;5522;42.696;23.494;2023-03-14T02:10:39;0.73;;;0.60;;
10939;SDS011;5522;42.696;23.494;2023-03-14T02:13:10;2.05;;;0.80;;
10939;SDS011;5522;42.696;23.494;2023-03-14T02:15:38;0.90;;;0.57;;
10939;SDS011;5522;42.696;23.494;2023-03-14T02:18:06;1.38;;;1.05;;
10939;SDS011;5522;42.696;23.494;2023-03-14T02:20:36;0.85;;;0.70;;
10939;SDS011;5522;42.696;23.494;2023-03-14T02:23:10;0.98;;;0.63;;
10939;SDS011;5522;42.696;23.494;2023-03-14T02:25:39;2.30;;;0.77;;
10939;SDS011;5522;42.696;23.494;2023-03-14T02:28:13;0.52;;;0.50;;
10939;SDS011;5522;42.696;23.494;2023-03-14T02:30:42;1.58;;;0.95;;
10939;SDS011;5522;42.696;23.494;2023-03-14T02:33:10;0.95;;;0.95;;
10939;SDS011;5522;42.696;23.494;2023-03-14T02:35:40;2.33;;;0.63;;
10939;SDS011;5522;42.696;23.494;2023-03-14T02:38:10;0.60;;;0.60;;
10939;SDS011;5522;42.696;23.494;2023-03-14T02:40:43;1.08;;;0.82;;
10939;SDS011;5522;42.696;23.494;2023-03-14T02:43:10;1.15;;;1.00;;
10939;SDS011;5522;42.696;23.494;2023-03-14T02:45:48;1.10;;;0.95;;
10939;SDS011;5522;42.696;23.494;2023-03-14T02:48:16;0.70;;;0.70;;
10939;SDS011;5522;42.696;23.494;2023-03-14T02:50:45;1.95;;;0.73;;
10939;SDS011;5522;42.696;23.494;2023-03-14T02:53:15;1.27;;;1.00;;
10939;SDS011;5522;42.696;23.494;2023-03-14T02:55:44;2.70;;;0.80;;
10939;SDS011;5522;42.696;23.494;2023-03-14T02:58:12;1.08;;;0.82;;
10939;SDS011;5522;42.696;23.494;2023-03-14T03:00:39;1.83;;;0.80;;
10939;SDS011;5522;42.696;23.494;2023-03-14T03:03:07;0.82;;;0.80;;
10939;SDS011;5522;42.696;23.494;2023-03-14T03:05:34;0.73;;;0.73;;
10939;SDS011;5522;42.696;23.494;2023-03-14T03:08:01;1.13;;;0.80;;
10939;SDS011;5522;42.696;23.494;2023-03-14T03:10:28;2.60;;;1.02;;
10939;SDS011;5522;42.696;23.494;2023-03-14T03:12:56;1.10;;;1.00;;
10939;SDS011;5522;42.696;23.494;2023-03-14T03:15:23;1.10;;;1.10;;
10939;SDS011;5522;42.696;23.494;2023-03-14T03:17:50;1.77;;;1.20;;
10939;SDS011;5522;42.696;23.494;2023-03-14T03:20:18;1.35;;;1.25;;
10939;SDS011;5522;42.696;23.494;2023-03-14T03:22:45;1.45;;;1.10;;
10939;SDS011;5522;42.696;23.494;2023-03-14T03:25:12;4.07;;;1.30;;
10939;SDS011;5522;42.696;23.494;2023-03-14T03:27:39;1.85;;;1.15;;
10939;SDS011;5522;42.696;23.494;2023-03-14T03:30:06;2.05;;;1.58;;
10939;SDS011;5522;42.696;23.494;2023-03-14T03:32:34;2.95;;;1.88;;
10939;SDS011;5522;42.696;23.494;2023-03-14T03:35:02;2.40;;;1.58;;
10939;SDS011;5522;42.696;23.494;2023-03-14T03:37:31;1.67;;;1.42;;
10939;SDS011;5522;42.696;23.494;2023-03-14T03:39:59;2.45;;;1.70;;
10939;SDS011;5522;42.696;23.494;2023-03-14T03:42:28;1.58;;;1.30;;
10939;SDS011;5522;42.696;23.494;2023-03-14T03:44:55;1.80;;;1.70;;
10939;SDS011;5522;42.696;23.494;2023-03-14T03:47:22;4.55;;;1.58;;
10939;SDS011;5522;42.696;23.494;2023-03-14T03:49:48;4.63;;;1.27;;
10939;SDS011;5522;42.696;23.494;2023-03-14T03:52:15;1.38;;;1.27;;
10939;SDS011;5522;42.696;23.494;2023-03-14T03:54:43;1.50;;;1.20;;
10939;SDS011;5522;42.696;23.494;2023-03-14T03:57:10;13.82;;;1.60;;
10939;SDS011;5522;42.696;23.494;2023-03-14T03:59:37;4.10;;;2.70;;
10939;SDS011;5522;42.696;23.494;2023-03-14T04:02:06;4.00;;;2.72;;
10939;SDS011;5522;42.696;23.494;2023-03-14T04:04:32;8.10;;;2.63;;
10939;SDS011;5522;42.696;23.494;2023-03-14T04:06:59;2.90;;;1.55;;
10939;SDS011;5522;42.696;23.494;2023-03-14T04:09:26;2.47;;;1.52;;
10939;SDS011;5522;42.696;23.494;2023-03-14T04:11:54;1.77;;;1.65;;
10939;SDS011;5522;42.696;23.494;2023-03-14T04:14:21;4.07;;;1.88;;
10939;SDS011;5522;42.696;23.494;2023-03-14T04:16:48;4.22;;;2.75;;
10939;SDS011;5522;42.696;23.494;2023-03-14T04:19:15;8.73;;;4.15;;
10939;SDS011;5522;42.696;23.494;2023-03-14T04:21:42;18.60;;;10.57;;
10939;SDS011;5522;42.696;23.494;2023-03-14T04:24:12;4.75;;;2.33;;
10939;SDS011;5522;42.696;23.494;2023-03-14T04:26:39;8.50;;;3.00;;
10939;SDS011;5522;42.696;23.494;2023-03-14T04:29:07;9.50;;;5.13;;
10939;SDS011;5522;42.696;23.494;2023-03-14T04:31:34;8.18;;;4.88;;
10939;SDS011;5522;42.696;23.494;2023-03-14T04:34:01;14.93;;;5.10;;
10939;SDS011;5522;42.696;23.494;2023-03-14T04:36:28;6.60;;;3.13;;
10939;SDS011;5522;42.696;23.494;2023-03-14T04:38:54;7.10;;;2.40;;
10939;SDS011;5522;42.696;23.494;2023-03-14T04:41:21;12.23;;;5.95;;
10939;SDS011;5522;42.696;23.494;2023-03-14T04:43:48;7.63;;;4.03;;
10939;SDS011;5522;42.696;23.494;2023-03-14T04:46:16;7.22;;;2.67;;
10939;SDS011;5522;42.696;23.494;2023-03-14T04:48:43;12.88;;;6.85;;
10939;SDS011;5522;42.696;23.494;2023-03-14T04:51:10;64.30;;;29.75;;
10939;SDS011;5522;42.696;23.494;2023-03-14T04:53:38;73.10;;;35.00;;
10939;SDS011;5522;42.696;23.494;2023-03-14T04:56:05;82.50;;;37.88;;
10939;SDS011;5522;42.696;23.494;2023-03-14T04:58:32;17.90;;;9.95;;
10939;SDS011;5522;42.696;23.494;2023-03-14T05:01:01;19.70;;;10.48;;
10939;SDS011;5522;42.696;23.494;2023-03-14T05:03:31;54.78;;;25.55;;
10939;SDS011;5522;42.696;23.494;2023-03-14T05:05:58;56.28;;;26.17;;
10939;SDS011;5522;42.696;23.494;2023-03-14T05:08:25;12.35;;;5.35;;
10939;SDS011;5522;42.696;23.494;2023-03-14T05:10:52;4.97;;;3.65;;
10939;SDS011;5522;42.696;23.494;2023-03-14T05:13:19;10.85;;;5.05;;
10939;SDS011;5522;42.696;23.494;2023-03-14T05:15:46;1.85;;;1.48;;
10939;SDS011;5522;42.696;23.494;2023-03-14T05:18:13;1.52;;;1.35;;
10939;SDS011;5522;42.696;23.494;2023-03-14T05:20:42;4.45;;;2.88;;
10939;SDS011;5522;42.696;23.494;2023-03-14T05:23:09;5.97;;;3.97;;
10939;SDS011;5522;42.696;23.494;2023-03-14T05:25:36;16.10;;;9.07;;
10939;SDS011;5522;42.696;23.494;2023-03-14T05:28:03;1.30;;;0.95;;
10939;SDS011;5522;42.696;23.494;2023-03-14T05:30:30;1.23;;;0.80;;
10939;SDS011;5522;42.696;23.494;2023-03-14T05:32:58;0.52;;;0.52;;
10939;SDS011;5522;42.696;23.494;2023-03-14T05:35:25;0.80;;;0.60;;
10939;SDS011;5522;42.696;23.494;2023-03-14T05:37:53;1.83;;;1.00;;
10939;SDS011;5522;42.696;23.494;2023-03-14T05:40:20;1.63;;;1.20;;
10939;SDS011;5522;42.696;23.494;2023-03-14T05:42:47;1.35;;;1.20;;
10939;SDS011;5522;42.696;23.494;2023-03-14T05:45:14;2.70;;;1.13;;
10939;SDS011;5522;42.696;23.494;2023-03-14T05:47:41;4.05;;;1.30;;
10939;SDS011;5522;42.696;23.494;2023-03-14T05:50:08;5.07;;;1.40;;
10939;SDS011;5522;42.696;23.494;2023-03-14T05:52:36;1.65;;;1.50;;
10939;SDS011;5522;42.696;23.494;2023-03-14T05:55:05;5.25;;;1.25;;
10939;SDS011;5522;42.696;23.494;2023-03-14T05:57:32;4.30;;;1.52;;
10939;SDS011;5522;42.696;23.494;2023-03-14T05:59:58;2.50;;;1.25;;
10939;SDS011;5522;42.696;23.494;2023-03-14T06:02:25;2.78;;;0.80;;
10939;SDS011;5522;42.696;23.494;2023-03-14T06:04:52;2.88;;;1.30;;
10939;SDS011;5522;42.696;23.494;2023-03-14T06:07:19;4.68;;;1.27;;
10939;SDS011;5522;42.696;23.494;2023-03-14T06:09:46;1.95;;;1.50;;
10939;SDS011;5522;42.696;23.494;2023-03-14T06:12:14;3.75;;;1.70;;
10939;SDS011;5522;42.696;23.494;2023-03-14T06:14:42;5.50;;;1.60;;
10939;SDS011;5522;42.696;23.494;2023-03-14T06:17:09;1.45;;;1.23;;
10939;SDS011;5522;42.696;23.494;2023-03-14T06:19:36;3.00;;;1.40;;
10939;SDS011;5522;42.696;23.494;2023-03-14T06:22:02;2.20;;;0.77;;
10939;SDS011;5522;42.696;23.494;2023-03-14T06:24:29;0.90;;;0.68;;
10939;SDS011;5522;42.696;23.494;2023-03-14T06:26:56;1.05;;;0.90;;
10939;SDS011;5522;42.696;23.494;2023-03-14T06:29:24;2.25;;;1.40;;
10939;SDS011;5522;42.696;23.494;2023-03-14T06:31:51;3.25;;;1.50;;
10939;SDS011;5522;42.696;23.494;2023-03-14T06:34:18;3.30;;;1.25;;
10939;SDS011;5522;42.696;23.494;2023-03-14T06:36:45;2.72;;;1.60;;
10939;SDS011;5522;42.696;23.494;2023-03-14T06:39:11;1.55;;;1.00;;
10939;SDS011;5522;42.696;23.494;2023-03-14T06:41:38;2.00;;;1.17;;
10939;SDS011;5522;42.696;23.494;2023-03-14T06:44:05;5.80;;;1.60;;
10939;SDS011;5522;42.696;23.494;2023-03-14T06:46:33;2.50;;;1.55;;
10939;SDS011;5522;42.696;23.494;2023-03-14T06:49:00;3.53;;;0.98;;
10939;SDS011;5522;42.696;23.494;2023-03-14T06:51:27;2.83;;;1.95;;
10939;SDS011;5522;42.696;23.494;2023-03-14T06:53:54;2.70;;;1.35;;
10939;SDS011;5522;42.696;23.494;2023-03-14T06:56:21;2.45;;;1.00;;
10939;SDS011;5522;42.696;23.494;2023-03-14T06:58:48;2.05;;;0.90;;
10939;SDS011;5522;42.696;23.494;2023-03-14T07:01:17;1.23;;;0.93;;
10939;SDS011;5522;42.696;23.494;2023-03-14T07:03:49;0.55;;;0.55;;
10939;SDS011;5522;42.696;23.494;2023-03-14T07:06:16;3.15;;;0.98;;
10939;SDS011;5522;42.696;23.494;2023-03-14T07:08:43;0.60;;;0.60;;
10939;SDS011;5522;42.696;23.494;2023-03-14T07:11:10;1.95;;;0.70;;
10939;SDS011;5522;42.696;23.494;2023-03-14T07:13:37;0.68;;;0.57;;
10939;SDS011;5522;42.696;23.494;2023-03-14T07:16:04;0.60;;;0.60;;
10939;SDS011;5522;42.696;23.494;2023-03-14T07:18:32;1.25;;;0.60;;
10939;SDS011;5522;42.696;23.494;2023-03-14T07:21:00;1.67;;;0.93;;
10939;SDS011;5522;42.696;23.494;2023-03-14T07:23:27;3.03;;;0.60;;
10939;SDS011;5522;42.696;23.494;2023-03-14T07:25:54;1.83;;;0.90;;
10939;SDS011;5522;42.696;23.494;2023-03-14T07:28:21;2.35;;;0.80;;
10939;SDS011;5522;42.696;23.494;2023-03-14T07:30:48;1.40;;;0.70;;
10939;SDS011;5522;42.696;23.494;2023-03-14T07:33:15;3.10;;;0.90;;
10939;SDS011;5522;42.696;23.494;2023-03-14T07:35:42;1.08;;;0.93;;
10939;SDS011;5522;42.696;23.494;2023-03-14T07:38:10;1.48;;;0.95;;
10939;SDS011;5522;42.696;23.494;2023-03-14T07:40:37;2.78;;;0.60;;
10939;SDS011;5522;42.696;23.494;2023-03-14T07:43:04;0.60;;;0.60;;
10939;SDS011;5522;42.696;23.494;2023-03-14T07:45:31;1.05;;;0.52;;
10939;SDS011;5522;42.696;23.494;2023-03-14T07:47:57;3.45;;;0.57;;
10939;SDS011;5522;42.696;23.494;2023-03-14T07:50:25;2.05;;;0.70;;
10939;SDS011;5522;42.696;23.494;2023-03-14T07:52:53;0.98;;;0.63;;
10939;SDS011;5522;42.696;23.494;2023-03-14T07:55:21;0.50;;;0.50;;
10939;SDS011;5522;42.696;23.494;2023-03-14T07:57:48;0.52;;;0.50;;
10939;SDS011;5522;42.696;23.494;2023-03-14T08:00:15;1.20;;;0.80;;
10939;SDS011;5522;42.696;23.494;2023-03-14T08:02:42;0.50;;;0.50;;
10939;SDS011;5522;42.696;23.494;2023-03-14T08:05:09;2.42;;;1.13;;
10939;SDS011;5522;42.696;23.494;2023-03-14T08:07:36;0.85;;;0.50;;
10939;SDS011;5522;42.696;23.494;2023-03-14T08:10:03;1.38;;;0.50;;
10939;SDS011;5522;42.696;23.494;2023-03-14T08:12:32;0.40;;;0.40;;
10939;SDS011;5522;42.696;23.494;2023-03-14T08:14:59;0.55;;;0.50;;
10939;SDS011;5522;42.696;23.494;2023-03-14T08:17:26;0.60;;;0.43;;
10939;SDS011;5522;42.696;23.494;2023-03-14T08:19:53;1.75;;;0.35;;
10939;SDS011;5522;42.696;23.494;2023-03-14T08:22:20;0.40;;;0.40;;
10939;SDS011;5522;42.696;23.494;2023-03-14T08:24:46;0.50;;;0.43;;
10939;SDS011;5522;42.696;23.494;2023-03-14T08:27:13;0.50;;;0.50;;
10939;SDS011;5522;42.696;23.494;2023-03-14T08:29:42;0.85;;;0.50;;
10939;SDS011;5522;42.696;23.494;2023-03-14T08:32:08;0.85;;;0.43;;
10939;SDS011;5522;42.696;23.494;2023-03-14T08:34:35;0.43;;;0.30;;
10939;SDS011;5522;42.696;23.494;2023-03-14T08:37:02;0.80;;;0.40;;
10939;SDS011;5522;42.696;23.494;2023-03-14T08:39:29;0.40;;;0.40;;
10939;SDS011;5522;42.696;23.494;2023-03-14T08:41:56;0.77;;;0.60;;
10939;SDS011;5522;42.696;23.494;2023-03-14T08:44:23;2.70;;;0.40;;
10939;SDS011;5522;42.696;23.494;2023-03-14T08:46:51;2.10;;;0.40;;
10939;SDS011;5522;42.696;23.494;2023-03-14T08:49:17;1.52;;;0.40;;
10939;SDS011;5522;42.696;23.494;2023-03-14T08:51:44;3.63;;;0.40;;
10939;SDS011;5522;42.696;23.494;2023-03-14T08:54:11;1.52;;;0.30;;
10939;SDS011;5522;42.696;23.494;2023-03-14T08:56:38;0.70;;;0.40;;
10939;SDS011;5522;42.696;23.494;2023-03-14T08:59:05;3.40;;;0.50;;
10939;SDS011;5522;42.696;23.494;2023-03-14T09:01:33;1.65;;;0.40;;
10939;SDS011;5522;42.696;23.494;2023-03-14T09:04:01;1.35;;;0.40;;
10939;SDS011;5522;42.696;23.494;2023-03-14T09:06:28;0.73;;;0.40;;
10939;SDS011;5522;42.696;23.494;2023-03-14T09:08:55;1.85;;;0.60;;
10939;SDS011;5522;42.696;23.494;2023-03-14T09:11:22;2.70;;;0.50;;
10939;SDS011;5522;42.696;23.494;2023-03-14T09:13:49;2.15;;;0.40;;
10939;SDS011;5522;42.696;23.494;2023-03-14T09:16:15;1.75;;;0.50;;
10939;SDS011;5522;42.696;23.494;2023-03-14T09:18:42;0.43;;;0.43;;
10939;SDS011;5522;42.696;23.494;2023-03-14T09:21:10;0.30;;;0.30;;
10939;SDS011;5522;42.696;23.494;2023-03-14T09:23:37;2.47;;;0.40;;
10939;SDS011;5522;42.696;23.494;2023-03-14T09:26:05;1.05;;;0.35;;
10939;SDS011;5522;42.696;23.494;2023-03-14T09:28:32;0.40;;;0.40;;
10939;SDS011;5522;42.696;23.494;2023-03-14T09:31:04;1.30;;;0.40;;
10939;SDS011;5522;42.696;23.494;2023-03-14T09:33:33;1.20;;;0.38;;
10939;SDS011;5522;42.696;23.494;2023-03-14T09:35:59;0.60;;;0.60;;
10939;SDS011;5522;42.696;23.494;2023-03-14T09:38:28;1.73;;;0.40;;
10939;SDS011;5522;42.696;23.494;2023-03-14T09:40:55;1.05;;;0.40;;
10939;SDS011;5522;42.696;23.494;2023-03-14T09:43:24;1.13;;;0.45;;
10939;SDS011;5522;42.696;23.494;2023-03-14T09:45:55;2.35;;;0.50;;
10939;SDS011;5522;42.696;23.494;2023-03-14T09:48:26;1.65;;;0.40;;
10939;SDS011;5522;42.696;23.494;2023-03-14T09:50:56;0.38;;;0.38;;
10939;SDS011;5522;42.696;23.494;2023-03-14T09:53:26;1.58;;;0.30;;
10939;SDS011;5522;42.696;23.494;2023-03-14T09:56:01;0.38;;;0.30;;
10939;SDS011;5522;42.696;23.494;2023-03-14T09:58:29;1.55;;;0.30;;
10939;SDS011;5522;42.696;23.494;2023-03-14T10:00:56;0.77;;;0.40;;
10939;SDS011;5522;42.696;23.494;2023-03-14T10:03:32;0.50;;;0.40;;
10939;SDS011;5522;42.696;23.494;2023-03-14T10:05:59;2.70;;;1.50;;
10939;SDS011;5522;42.696;23.494;2023-03-14T10:08:28;5.93;;;1.73;;
10939;SDS011;5522;42.696;23.494;2023-03-14T10:10:55;2.67;;;0.55;;
10939;SDS011;5522;42.696;23.494;2023-03-14T10:13:22;0.73;;;0.30;;
10939;SDS011;5522;42.696;23.494;2023-03-14T10:15:51;0.30;;;0.30;;
10939;SDS011;5522;42.696;23.494;2023-03-14T10:18:19;1.85;;;0.30;;
10939;SDS011;5522;42.696;23.494;2023-03-14T10:20:49;0.30;;;0.30;;
10939;SDS011;5522;42.696;23.494;2023-03-14T10:23:29;0.30;;;0.30;;
10939;SDS011;5522;42.696;23.494;2023-03-14T10:26:00;0.25;;;0.25;;
10939;SDS011;5522;42.696;23.494;2023-03-14T10:28:32;1.65;;;0.40;;
10939;SDS011;5522;42.696;23.494;2023-03-14T10:31:00;1.52;;;0.40;;
10939;SDS011;5522;42.696;23.494;2023-03-14T10:33:27;1.70;;;0.40;;
10939;SDS011;5522;42.696;23.494;2023-03-14T10:35:57;1.85;;;0.30;;
10939;SDS011;5522;42.696;23.494;2023-03-14T10:38:26;0.28;;;0.28;;
10939;SDS011;5522;42.696;23.494;2023-03-14T10:40:55;0.75;;;0.40;;
10939;SDS011;5522;42.696;23.494;2023-03-14T10:43:24;2.50;;;0.38;;
10939;SDS011;5522;42.696;23.494;2023-03-14T10:45:54;0.40;;;0.40;;
10939;SDS011;5522;42.696;23.494;2023-03-14T10:48:24;1.55;;;0.30;;
10939;SDS011;5522;42.696;23.494;2023-03-14T10:50:57;0.68;;;0.30;;
10939;SDS011;5522;42.696;23.494;2023-03-14T10:53:33;0.68;;;0.40;;
10939;SDS011;5522;42.696;23.494;2023-03-14T10:56:07;1.25;;;0.40;;
10939;SDS011;5522;42.696;23.494;2023-03-14T10:58:38;0.43;;;0.40;;
10939;SDS011;5522;42.696;23.494;2023-03-14T11:01:14;1.60;;;0.40;;
10939;SDS011;5522;42.696;23.494;2023-03-14T11:03:53;2.08;;;0.40;;
10939;SDS011;5522;42.696;23.494;2023-03-14T11:06:25;1.00;;;0.38;;
10939;SDS011;5522;42.696;23.494;2023-03-14T11:09:02;1.65;;;0.20;;
10939;SDS011;5522;42.696;23.494;2023-03-14T11:11:38;0.90;;;0.30;;
10939;SDS011;5522;42.696;23.494;2023-03-14T11:14:12;0.45;;;0.35;;
10939;SDS011;5522;42.696;23.494;2023-03-14T11:16:50;3.25;;;0.30;;
10939;SDS011;5522;42.696;23.494;2023-03-14T11:22:24;0.25;;;0.20;;
10939;SDS011;5522;42.696;23.494;2023-03-14T11:25:02;1.45;;;0.20;;
10939;SDS011;5522;42.696;23.494;2023-03-14T11:27:47;2.30;;;0.20;;
10939;SDS011;5522;42.696;23.494;2023-03-14T11:30:21;0.25;;;0.20;;
10939;SDS011;5522;42.696;23.494;2023-03-14T11:32:57;0.30;;;0.20;;
10939;SDS011;5522;42.696;23.494;2023-03-14T11:35:31;0.70;;;0.20;;
10939;SDS011;5522;42.696;23.494;2023-03-14T11:38:03;2.47;;;0.30;;
10939;SDS011;5522;42.696;23.494;2023-03-14T11:40:39;0.20;;;0.20;;
10939;SDS011;5522;42.696;23.494;2023-03-14T11:43:11;0.20;;;0.20;;
10939;SDS011;5522;42.696;23.494;2023-03-14T11:45:42;0.65;;;0.20;;
10939;SDS011;5522;42.696;23.494;2023-03-14T11:48:13;3.22;;;0.20;;
10939;SDS011;5522;42.696;23.494;2023-03-14T11:50:47;0.15;;;0.15;;
10939;SDS011;5522;42.696;23.494;2023-03-14T11:53:18;0.22;;;0.20;;
10939;SDS011;5522;42.696;23.494;2023-03-14T11:55:48;0.20;;;0.20;;
10939;SDS011;5522;42.696;23.494;2023-03-14T11:58:19;0.20;;;0.20;;
10939;SDS011;5522;42.696;23.494;2023-03-14T12:00:50;5.00;;;0.15;;
10939;SDS011;5522;42.696;23.494;2023-03-14T12:03:21;0.30;;;0.10;;
10939;SDS011;5522;42.696;23.494;2023-03-14T12:06:05;0.30;;;0.20;;
10939;SDS011;5522;42.696;23.494;2023-03-14T12:08:43;0.32;;;0.20;;
10939;SDS011;5522;42.696;23.494;2023-03-14T12:11:16;1.63;;;0.20;;
10939;SDS011;5522;42.696;23.494;2023-03-14T12:13:49;0.20;;;0.20;;
10939;SDS011;5522;42.696;23.494;2023-03-14T12:16:30;1.85;;;0.20;;
10939;SDS011;5522;42.696;23.494;2023-03-14T12:19:13;0.20;;;0.20;;
10939;SDS011;5522;42.696;23.494;2023-03-14T12:21:56;0.75;;;0.20;;
10939;SDS011;5522;42.696;23.494;2023-03-14T12:24:27;0.52;;;0.30;;
10939;SDS011;5522;42.696;23.494;2023-03-14T12:26:57;0.55;;;0.20;;
10939;SDS011;5522;42.696;23.494;2023-03-14T12:29:26;0.98;;;0.20;;
10939;SDS011;5522;42.696;23.494;2023-03-14T12:32:09;0.20;;;0.20;;
10939;SDS011;5522;42.696;23.494;2023-03-14T12:34:48;0.20;;;0.20;;
10939;SDS011;5522;42.696;23.494;2023-03-14T12:40:16;1.45;;;0.20;;
10939;SDS011;5522;42.696;23.494;2023-03-14T12:42:51;0.75;;;0.20;;
10939;SDS011;5522;42.696;23.494;2023-03-14T12:45:26;1.48;;;0.20;;
10939;SDS011;5522;42.696;23.494;2023-03-14T12:47:56;1.40;;;0.10;;
10939;SDS011;5522;42.696;23.494;2023-03-14T12:50:40;0.10;;;0.10;;
10939;SDS011;5522;42.696;23.494;2023-03-14T12:56:17;0.32;;;0.10;;
10939;SDS011;5522;42.696;23.494;2023-03-14T12:58:53;0.20;;;0.10;;
10939;SDS011;5522;42.696;23.494;2023-03-14T13:01:29;0.20;;;0.10;;
10939;SDS011;5522;42.696;23.494;2023-03-14T13:04:02;0.20;;;0.20;;
10939;SDS011;5522;42.696;23.494;2023-03-14T13:06:49;0.10;;;0.10;;
10939;SDS011;5522;42.696;23.494;2023-03-14T13:12:25;0.15;;;0.10;;
10939;SDS011;5522;42.696;23.494;2023-03-14T13:14:57;1.58;;;0.10;;
10939;SDS011;5522;42.696;23.494;2023-03-14T13:17:30;0.20;;;0.20;;
10939;SDS011;5522;42.696;23.494;2023-03-14T13:20:00;0.30;;;0.17;;
10939;SDS011;5522;42.696;23.494;2023-03-14T13:22:32;0.13;;;0.10;;
10939;SDS011;5522;42.696;23.494;2023-03-14T13:25:04;0.10;;;0.10;;
10939;SDS011;5522;42.696;23.494;2023-03-14T13:27:33;0.45;;;0.20;;
10939;SDS011;5522;42.696;23.494;2023-03-14T13:30:05;0.10;;;0.10;;
10939;SDS011;5522;42.696;23.494;2023-03-14T13:32:46;0.73;;;0.15;;
10939;SDS011;5522;42.696;23.494;2023-03-14T13:35:15;2.17;;;0.20;;
10939;SDS011;5522;42.696;23.494;2023-03-14T13:37:43;1.00;;;0.10;;
10939;SDS011;5522;42.696;23.494;2023-03-14T13:40:18;0.10;;;0.10;;
10939;SDS011;5522;42.696;23.494;2023-03-14T13:42:47;0.63;;;0.17;;
10939;SDS011;5522;42.696;23.494;2023-03-14T13:45:14;1.00;;;0.13;;
10939;SDS011;5522;42.696;23.494;2023-03-14T13:47:41;2.22;;;0.20;;
10939;SDS011;5522;42.696;23.494;2023-03-14T13:50:14;0.20;;;0.20;;
10939;SDS011;5522;42.696;23.494;2023-03-14T13:52:42;0.10;;;0.10;;
10939;SDS011;5522;42.696;23.494;2023-03-14T13:55:13;0.25;;;0.10;;
10939;SDS011;5522;42.696;23.494;2023-03-14T13:57:43;0.50;;;0.20;;
10939;SDS011;5522;42.696;23.494;2023-03-14T14:00:18;5.35;;;0.15;;
10939;SDS011;5522;42.696;23.494;2023-03-14T14:02:47;0.13;;;0.10;;
10939;SDS011;5522;42.696;23.494;2023-03-14T14:05:16;0.20;;;0.10;;
10939;SDS011;5522;42.696;23.494;2023-03-14T14:07:43;0.10;;;0.10;;
10939;SDS011;5522;42.696;23.494;2023-03-14T14:10:11;0.20;;;0.20;;
10939;SDS011;5522;42.696;23.494;2023-03-14T14:12:39;1.73;;;0.10;;
10939;SDS011;5522;42.696;23.494;2023-03-14T14:15:11;1.45;;;0.20;;
10939;SDS011;5522;42.696;23.494;2023-03-14T14:17:44;1.25;;;0.10;;
10939;SDS011;5522;42.696;23.494;2023-03-14T14:20:18;0.10;;;0.10;;
10939;SDS011;5522;42.696;23.494;2023-03-14T14:22:48;2.95;;;0.20;;
10939;SDS011;5522;42.696;23.494;2023-03-14T14:25:15;0.20;;;0.20;;
10939;SDS011;5522;42.696;23.494;2023-03-14T14:27:43;0.20;;;0.10;;
10939;SDS011;5522;42.696;23.494;2023-03-14T14:30:24;1.15;;;0.30;;
10939;SDS011;5522;42.696;23.494;2023-03-14T14:35:53;3.30;;;0.20;;
10939;SDS011;5522;42.696;23.494;2023-03-14T14:38:22;0.65;;;0.20;;
10939;SDS011;5522;42.696;23.494;2023-03-14T14:40:50;0.20;;;0.20;;
10939;SDS011;5522;42.696;23.494;2023-03-14T14:43:21;1.38;;;0.20;;
10939;SDS011;5522;42.696;23.494;2023-03-14T14:45:50;0.40;;;0.20;;
10939;SDS011;5522;42.696;23.494;2023-03-14T14:48:20;2.00;;;0.20;;
10939;SDS011;5522;42.696;23.494;2023-03-14T14:50:50;0.30;;;0.20;;
10939;SDS011;5522;42.696;23.494;2023-03-14T14:53:26;2.15;;;0.20;;
10939;SDS011;5522;42.696;23.494;2023-03-14T14:55:55;0.20;;;0.20;;
10939;SDS011;5522;42.696;23.494;2023-03-14T14:58:25;0.20;;;0.20;;
10939;SDS011;5522;42.696;23.494;2023-03-14T15:00:54;0.20;;;0.20;;
10939;SDS011;5522;42.696;23.494;2023-03-14T15:03:28;1.27;;;0.30;;
10939;SDS011;5522;42.696;23.494;2023-03-14T15:05:58;0.95;;;0.30;;
10939;SDS011;5522;42.696;23.494;2023-03-14T15:08:25;0.52;;;0.30;;
10939;SDS011;5522;42.696;23.494;2023-03-14T15:10:53;1.10;;;0.30;;
10939;SDS011;5522;42.696;23.494;2023-03-14T15:13:20;0.60;;;0.30;;
10939;SDS011;5522;42.696;23.494;2023-03-14T15:15:47;0.32;;;0.30;;
10939;SDS011;5522;42.696;23.494;2023-03-14T15:18:21;0.50;;;0.50;;
10939;SDS011;5522;42.696;23.494;2023-03-14T15:20:50;2.20;;;0.40;;
10939;SDS011;5522;42.696;23.494;2023-03-14T15:23:19;0.30;;;0.30;;
10939;SDS011;5522;42.696;23.494;2023-03-14T15:25:47;1.27;;;0.30;;